^^
Station Historical Data
Daily Summary for April 17, 2018 Units:  English    Metric   Both
« Previous Day
Next Day »
Daily Weekly Monthly Yearly Custom
  High: Low: Average:
Temperature: TemperatureF °F 29.8 °F 49.4 °F
Dew Point: DewpointF °F 22.5 °F 34.8 °F
Humidity: Humidity% 32% 60%
Wind Speed: WindSpeedMPHmph 0.0mph 2.4mph
Wind Gust: WindSpeedGustMPHmph - -
Wind- - SW
Pressure: PressureIn in 30.32 in -
Precipitation: 0.00 in    
Historical Graphs
 
 
Tabular Data for April 17, 2018
Time Temperature Dew Point Pressure Wind Wind Speed Wind Gust Humidity Rainfall Rate (Hourly)
TemperatureF °F DewpointF °F PressureIn in Calm     Humidity% HourlyPrecipIn in
00:02 33.6 °F 22.8 °F 30.50 in West 12.1 mph 12.1 mph 64% 0.00 in
00:07 33.6 °F 22.5 °F 30.50 in West 0.9 mph 6.0 mph 63% 0.00 in
00:22 33.6 °F 22.5 °F 30.50 in West 2.9 mph 6.0 mph 63% 0.00 in
00:27 33.4 °F 22.6 °F 30.50 in WNW 10.1 mph 16.0 mph 64% 0.00 in
00:32 33.4 °F 22.6 °F 30.50 in ENE 0.9 mph 10.0 mph 64% 0.00 in
00:42 33.4 °F 22.6 °F 30.50 in Calm   3.0 mph 64% 0.00 in
00:47 33.3 °F 22.5 °F 30.50 in WNW 2.0 mph 12.0 mph 64% 0.00 in
00:52 33.3 °F 22.5 °F 30.50 in West 4.9 mph 5.0 mph 64% 0.00 in
00:57 33.3 °F 22.8 °F 30.50 in Calm   3.0 mph 65% 0.00 in
01:02 33.1 °F 22.6 °F 30.50 in West 4.0 mph 9.0 mph 65% 0.00 in
01:07 33.1 °F 22.6 °F 30.50 in West 6.0 mph 6.0 mph 65% 0.00 in
01:12 32.9 °F 22.8 °F 30.50 in Calm   2.0 mph 66% 0.00 in
01:17 32.7 °F 22.6 °F 30.50 in SE 2.0 mph 2.0 mph 66% 0.00 in
01:22 32.7 °F 23.0 °F 30.50 in Calm   1.0 mph 67% 0.00 in
01:27 32.7 °F 23.0 °F 30.50 in ESE 2.0 mph 4.0 mph 67% 0.00 in
01:32 32.7 °F 23.0 °F 30.50 in West 0.9 mph 2.0 mph 67% 0.00 in
01:37 32.7 °F 23.4 °F 30.50 in Calm   1.0 mph 68% 0.00 in
01:42 32.7 °F 23.0 °F 30.49 in Calm   2.0 mph 67% 0.00 in
01:47 32.9 °F 22.8 °F 30.49 in Calm   1.0 mph 66% 0.00 in
01:52 32.9 °F 23.2 °F 30.49 in Calm     67% 0.00 in
01:57 33.1 °F 23.0 °F 30.49 in West 0.9 mph 4.0 mph 66% 0.00 in
02:02 33.1 °F 23.0 °F 30.49 in WNW 2.0 mph 2.0 mph 66% 0.00 in
02:12 33.3 °F 23.5 °F 30.49 in Calm   2.0 mph 67% 0.00 in
02:17 33.3 °F 23.2 °F 30.49 in West 0.9 mph 1.0 mph 66% 0.00 in
02:22 33.3 °F 23.2 °F 30.49 in WNW 0.9 mph 1.0 mph 66% 0.00 in
02:27 33.3 °F 23.9 °F 30.49 in NW 4.0 mph 4.0 mph 68% 0.00 in
02:32 33.3 °F 23.5 °F 30.49 in Calm     67% 0.00 in
02:37 33.3 °F 23.5 °F 30.49 in Calm     67% 0.00 in
02:47 33.3 °F 23.9 °F 30.48 in Calm   1.0 mph 68% 0.00 in
02:57 33.4 °F 24.1 °F 30.48 in Calm   2.0 mph 68% 0.00 in
03:02 33.4 °F 24.1 °F 30.48 in Calm   1.0 mph 68% 0.00 in
03:07 33.4 °F 24.4 °F 30.48 in Calm   1.0 mph 69% 0.00 in
03:12 33.4 °F 24.4 °F 30.47 in Calm     69% 0.00 in
03:17 33.4 °F 24.4 °F 30.47 in West 0.9 mph 2.0 mph 69% 0.00 in
03:22 33.6 °F 24.6 °F 30.48 in Calm   1.0 mph 69% 0.00 in
03:27 33.6 °F 24.6 °F 30.47 in Calm   2.0 mph 69% 0.00 in
03:32 33.8 °F 24.4 °F 30.47 in ENE 0.9 mph 3.0 mph 68% 0.00 in
03:37 34.0 °F 25.2 °F 30.47 in Calm   2.0 mph 70% 0.00 in
03:42 34.0 °F 24.8 °F 30.47 in Calm     69% 0.00 in
03:48 34.0 °F 25.5 °F 30.47 in Calm   1.0 mph 71% 0.00 in
03:53 34.0 °F 25.2 °F 30.48 in Calm     70% 0.00 in
03:58 34.2 °F 25.3 °F 30.48 in NNE 0.9 mph 1.0 mph 70% 0.00 in
04:03 34.2 °F 25.3 °F 30.47 in Calm   1.0 mph 70% 0.00 in
04:13 34.2 °F 25.7 °F 30.47 in Calm   2.0 mph 71% 0.00 in
04:23 34.0 °F 25.5 °F 30.47 in Calm   3.0 mph 71% 0.00 in
04:28 34.0 °F 25.5 °F 30.47 in Calm   1.0 mph 71% 0.00 in
04:33 33.8 °F 25.3 °F 30.47 in ENE 3.0 mph 3.0 mph 71% 0.00 in
04:43 34.0 °F 25.5 °F 30.48 in Calm   3.0 mph 71% 0.00 in
04:48 34.0 °F 26.2 °F 30.48 in Calm   1.0 mph 73% 0.00 in
04:58 34.0 °F 25.9 °F 30.48 in Calm     72% 0.00 in
05:08 33.6 °F 26.2 °F 30.48 in Calm     74% 0.00 in
05:13 33.4 °F 26.8 °F 30.48 in Calm   1.0 mph 76% 0.00 in
05:18 33.4 °F 27.0 °F 30.48 in Calm   1.0 mph 77% 0.00 in
05:23 33.4 °F 26.8 °F 30.49 in NW 2.0 mph 3.0 mph 76% 0.00 in
05:48 33.1 °F 27.0 °F 30.48 in NE 2.0 mph 2.0 mph 78% 0.00 in
05:53 32.7 °F 26.6 °F 30.48 in NE 0.9 mph 2.0 mph 78% 0.00 in
05:58 32.5 °F 26.4 °F 30.48 in Calm   1.0 mph 78% 0.00 in
06:03 32.2 °F 26.8 °F 30.48 in Calm     80% 0.00 in
06:14 31.6 °F 27.1 °F 30.49 in Calm   1.0 mph 83% 0.00 in
06:19 31.3 °F 26.8 °F 30.49 in ENE 2.0 mph 2.0 mph 83% 0.00 in
06:29 31.3 °F 27.0 °F 30.49 in Calm   1.0 mph 84% 0.00 in
06:34 30.9 °F 26.4 °F 30.49 in Calm     83% 0.00 in
06:44 30.7 °F 26.8 °F 30.50 in Calm   1.0 mph 85% 0.00 in
06:54 30.4 °F 26.1 °F 30.50 in Calm     84% 0.00 in
07:04 30.4 °F 26.8 °F 30.50 in Calm   2.0 mph 86% 0.00 in
07:19 30.0 °F 26.6 °F 30.51 in Calm     87% 0.00 in
07:24 29.8 °F 26.8 °F 30.51 in Calm     88% 0.00 in
07:29 30.0 °F 27.0 °F 30.51 in Calm     88% 0.00 in
07:34 30.0 °F 27.0 °F 30.51 in Calm     88% 0.00 in
07:39 30.0 °F 27.0 °F 30.52 in Calm     88% 0.00 in
07:44 30.2 °F 27.1 °F 30.52 in Calm     88% 0.00 in
07:49 30.4 °F 27.3 °F 30.52 in Calm   1.0 mph 88% 0.00 in
07:55 30.4 °F 27.3 °F 30.53 in Calm     88% 0.00 in
08:00 30.6 °F 27.7 °F 30.53 in Calm     89% 0.00 in
08:05 30.7 °F 27.7 °F 30.53 in Calm   1.0 mph 88% 0.00 in
08:10 30.9 °F 28.0 °F 30.53 in Calm   1.0 mph 89% 0.00 in
08:15 31.5 °F 28.6 °F 30.53 in Calm     89% 0.00 in
08:25 32.4 °F 29.1 °F 30.53 in Calm   1.0 mph 88% 0.00 in
08:35 34.3 °F 30.6 °F 30.53 in Calm   1.0 mph 86% 0.00 in
08:50 40.8 °F 32.2 °F 30.52 in ESE 0.9 mph 1.0 mph 71% 0.00 in
09:00 43.2 °F 31.1 °F 30.52 in ESE 2.0 mph 2.0 mph 62% 0.00 in
09:05 44.1 °F 31.5 °F 30.52 in ENE 0.9 mph 3.0 mph 61% 0.00 in
09:15 46.4 °F 31.6 °F 30.51 in Calm     56% 0.00 in
09:20 46.9 °F 31.1 °F 30.52 in West 0.9 mph 3.0 mph 54% 0.00 in
09:25 45.9 °F 32.4 °F 30.52 in WSW 2.0 mph 2.0 mph 59% 0.00 in
09:40 46.9 °F 30.7 °F 30.51 in ESE 2.0 mph 4.0 mph 53% 0.00 in
09:45 47.3 °F 32.0 °F 30.51 in East 2.0 mph 3.0 mph 55% 0.00 in
09:51 46.9 °F 31.1 °F 30.51 in ENE 2.0 mph 7.0 mph 54% 0.00 in
10:01 48.0 °F 32.2 °F 30.50 in ESE 0.9 mph 2.0 mph 54% 0.00 in
10:06 48.9 °F 33.1 °F 30.51 in WNW 4.0 mph 6.0 mph 54% 0.00 in
10:36 49.5 °F 32.5 °F 30.50 in WNW 8.1 mph 8.1 mph 52% 0.00 in
10:51 49.8 °F 32.4 °F 30.50 in WNW 2.0 mph 2.0 mph 51% 0.00 in
10:56 50.7 °F 32.7 °F 30.49 in WSW 2.9 mph 7.0 mph 50% 0.00 in
11:01 50.7 °F 32.7 °F 30.49 in Calm   9.0 mph 50% 0.00 in
11:16 52.3 °F 33.8 °F 30.49 in NE 6.9 mph 11.0 mph 49% 0.00 in
11:26 53.1 °F 34.9 °F 30.48 in Calm   4.0 mph 50% 0.00 in
11:31 53.4 °F 34.2 °F 30.47 in NNE 2.0 mph 7.0 mph 48% 0.00 in
11:41 54.9 °F 35.1 °F 30.47 in Calm   3.0 mph 47% 0.00 in
11:51 56.1 °F 34.5 °F 30.47 in Calm   4.0 mph 44% 0.00 in
11:56 56.7 °F 33.3 °F 30.47 in WNW 0.9 mph 9.0 mph 41% 0.00 in
12:16 58.6 °F 33.8 °F 30.46 in ESE 0.9 mph 10.0 mph 39% 0.00 in
12:21 59.2 °F 32.2 °F 30.45 in NW 2.9 mph 7.0 mph 36% 0.00 in
12:32 59.5 °F 31.1 °F 30.45 in WNW 8.1 mph 12.0 mph 34% 0.00 in
12:37 59.7 °F 29.8 °F 30.45 in WNW 6.0 mph 16.0 mph 32% 0.00 in
12:42 60.4 °F 31.3 °F 30.45 in West 2.9 mph 11.0 mph 33% 0.00 in
12:47 60.4 °F 30.4 °F 30.45 in WNW 2.0 mph 10.0 mph 32% 0.00 in
13:07 61.7 °F 32.4 °F 30.43 in ENE 2.9 mph 16.0 mph 33% 0.00 in
13:12 61.5 °F 32.2 °F 30.44 in WNW 11.0 mph 17.0 mph 33% 0.00 in
13:17 61.7 °F 33.1 °F 30.43 in WNW 12.1 mph 15.0 mph 34% 0.00 in
13:32 61.9 °F 34.7 °F 30.44 in West 17.9 mph 18.0 mph 36% 0.00 in
13:42 62.4 °F 35.8 °F 30.42 in West 0.9 mph 13.0 mph 37% 0.00 in
13:57 62.8 °F 36.1 °F 30.42 in NNW 4.0 mph 11.0 mph 37% 0.00 in
14:18 63.3 °F 36.7 °F 30.41 in WSW 11.0 mph 16.0 mph 37% 0.00 in
14:23 63.1 °F 36.5 °F 30.42 in WNW 8.1 mph 15.0 mph 37% 0.00 in
14:28 63.3 °F 36.7 °F 30.41 in West 17.9 mph 18.0 mph 37% 0.00 in
14:38 63.7 °F 36.9 °F 30.41 in WNW 8.1 mph 20.0 mph 37% 0.00 in
14:43 64.0 °F 37.2 °F 30.41 in WNW 14.1 mph 20.0 mph 37% 0.00 in
14:48 64.4 °F 38.3 °F 30.40 in WNW 6.9 mph 16.0 mph 38% 0.00 in
14:53 64.6 °F 39.0 °F 30.40 in NW 14.1 mph 18.0 mph 39% 0.00 in
14:58 64.9 °F 39.4 °F 30.40 in West 6.0 mph 15.0 mph 39% 0.00 in
15:03 65.5 °F 40.5 °F 30.40 in NW 2.9 mph 10.0 mph 40% 0.00 in
15:08 65.5 °F 40.5 °F 30.40 in WNW 2.0 mph 12.0 mph 40% 0.00 in
15:13 65.5 °F 40.5 °F 30.39 in NNE 10.1 mph 18.0 mph 40% 0.00 in
15:18 65.5 °F 41.2 °F 30.39 in NW 4.9 mph 14.0 mph 41% 0.00 in
15:28 65.7 °F 42.6 °F 30.38 in West 10.1 mph 21.0 mph 43% 0.00 in
15:33 66.0 °F 43.5 °F 30.37 in ENE 12.1 mph 18.0 mph 44% 0.00 in
15:38 66.6 °F 43.3 °F 30.37 in SW 4.0 mph 9.0 mph 43% 0.00 in
15:43 66.7 °F 43.5 °F 30.37 in WSW 2.0 mph 9.0 mph 43% 0.00 in
15:48 67.1 °F 44.4 °F 30.36 in NW 6.0 mph 13.0 mph 44% 0.00 in
15:58 67.6 °F 44.4 °F 30.36 in NNW 4.9 mph 9.0 mph 43% 0.00 in
16:03 67.8 °F 45.1 °F 30.35 in SSE 2.9 mph 7.0 mph 44% 0.00 in
16:08 68.5 °F 45.1 °F 30.35 in WNW 8.1 mph 10.0 mph 43% 0.00 in
16:13 69.1 °F 45.7 °F 30.35 in West 2.9 mph 12.0 mph 43% 0.00 in
16:33 69.4 °F 46.6 °F 30.34 in NW 4.0 mph 12.0 mph 44% 0.00 in
16:43 70.3 °F 46.8 °F 30.34 in NW 4.0 mph 12.0 mph 43% 0.00 in
16:48 70.2 °F 47.8 °F 30.33 in WNW 8.1 mph 10.0 mph 45% 0.00 in
16:58 70.3 °F 46.8 °F 30.33 in NW 4.0 mph 17.0 mph 43% 0.00 in
17:03 71.1 °F 47.5 °F 30.33 in SE 2.0 mph 6.0 mph 43% 0.00 in
17:08 71.4 °F 47.8 °F 30.32 in Calm   10.0 mph 43% 0.00 in
17:13 72.0 °F 48.2 °F 30.32 in South 2.0 mph 3.0 mph 43% 0.00 in
17:18 72.3 °F 47.3 °F 30.32 in WNW 2.0 mph 4.0 mph 41% 0.00 in
17:28 72.3 °F 48.0 °F 30.32 in NW 0.9 mph 8.0 mph 42% 0.00 in
17:33 72.0 °F 47.7 °F 30.32 in WNW 8.9 mph 11.0 mph 42% 0.00 in
17:48 71.4 °F 47.1 °F 30.32 in South 4.9 mph 9.0 mph 42% 0.00 in
17:58 71.4 °F 46.6 °F 30.32 in West 0.9 mph 8.0 mph 41% 0.00 in
18:03 71.4 °F 47.1 °F 30.32 in WNW 6.9 mph 13.0 mph 42% 0.00 in
18:08 71.4 °F 47.1 °F 30.32 in NNW 0.9 mph 5.0 mph 42% 0.00 in
18:13 71.8 °F 46.8 °F 30.32 in NW 6.0 mph 11.0 mph 41% 0.00 in
18:18 71.4 °F 46.6 °F 30.32 in SE 4.0 mph 5.0 mph 41% 0.00 in
18:23 72.0 °F 47.7 °F 30.32 in SSE 0.9 mph 3.0 mph 42% 0.00 in
18:28 71.8 °F 46.8 °F 30.32 in WSW 6.0 mph 6.0 mph 41% 0.00 in
18:33 71.4 °F 46.6 °F 30.32 in WNW 6.0 mph 9.0 mph 41% 0.00 in
18:38 71.1 °F 46.2 °F 30.32 in WSW 2.9 mph 8.0 mph 41% 0.00 in
18:43 71.1 °F 46.2 °F 30.32 in WNW 6.0 mph 7.0 mph 41% 0.00 in
18:48 70.9 °F 46.0 °F 30.32 in WSW 0.9 mph 9.0 mph 41% 0.00 in
18:53 71.1 °F 46.2 °F 30.32 in North 4.0 mph 8.0 mph 41% 0.00 in
18:58 70.5 °F 45.7 °F 30.32 in West 0.9 mph 8.0 mph 41% 0.00 in
19:03 70.3 °F 46.2 °F 30.32 in NW 2.9 mph 5.0 mph 42% 0.00 in
19:08 70.2 °F 46.0 °F 30.32 in NW 2.0 mph 7.0 mph 42% 0.00 in
19:13 69.6 °F 45.5 °F 30.32 in WNW 4.0 mph 7.0 mph 42% 0.00 in
19:23 67.8 °F 45.1 °F 30.32 in WNW 4.0 mph 9.0 mph 44% 0.00 in
19:33 66.6 °F 45.1 °F 30.32 in WNW 4.0 mph 7.0 mph 46% 0.00 in
19:38 66.2 °F 45.3 °F 30.32 in WNW 4.0 mph 9.0 mph 47% 0.00 in
19:43 65.8 °F 45.0 °F 30.32 in NNE 4.9 mph 9.0 mph 47% 0.00 in
19:48 65.7 °F 45.0 °F 30.32 in Calm   5.0 mph 47% 0.00 in
19:58 65.1 °F 45.0 °F 30.32 in ENE 2.0 mph 6.0 mph 48% 0.00 in
20:03 64.9 °F 44.8 °F 30.32 in Calm   6.0 mph 48% 0.00 in
20:09 64.8 °F 45.1 °F 30.32 in NNW 2.0 mph 5.0 mph 49% 0.00 in
20:14 64.2 °F 44.6 °F 30.32 in NE 0.9 mph 6.0 mph 49% 0.00 in
20:19 64.0 °F 45.5 °F 30.32 in ENE 2.9 mph 4.0 mph 51% 0.00 in
20:24 64.0 °F 45.5 °F 30.32 in NNW 0.9 mph 4.0 mph 51% 0.00 in
20:29 63.9 °F 44.8 °F 30.32 in Calm   2.0 mph 50% 0.00 in
20:34 63.5 °F 45.5 °F 30.32 in East 2.0 mph 9.0 mph 52% 0.00 in
20:39 63.1 °F 45.7 °F 30.32 in Calm   1.0 mph 53% 0.00 in
20:44 63.0 °F 45.5 °F 30.32 in Calm   1.0 mph 53% 0.00 in
20:49 62.2 °F 45.9 °F 30.32 in Calm   2.0 mph 55% 0.00 in
21:04 60.4 °F 46.0 °F 30.33 in WNW 2.0 mph 5.0 mph 59% 0.00 in
21:14 58.6 °F 46.6 °F 30.33 in Calm   5.0 mph 64% 0.00 in
21:19 57.7 °F 47.3 °F 30.33 in Calm   1.0 mph 68% 0.00 in
21:24 56.7 °F 47.7 °F 30.34 in ESE 2.0 mph 3.0 mph 72% 0.00 in
21:29 55.9 °F 47.5 °F 30.34 in Calm   1.0 mph 73% 0.00 in
21:34 55.2 °F 46.8 °F 30.34 in Calm     73% 0.00 in
21:39 54.9 °F 47.1 °F 30.34 in Calm   1.0 mph 75% 0.00 in
22:04 52.3 °F 46.4 °F 30.34 in Calm     80% 0.00 in
22:09 52.2 °F 46.6 °F 30.34 in ESE 0.9 mph 1.0 mph 81% 0.00 in
22:14 52.0 °F 46.4 °F 30.34 in Calm   1.0 mph 81% 0.00 in
22:19 51.3 °F 46.0 °F 30.34 in Calm     82% 0.00 in
22:29 50.7 °F 46.0 °F 30.34 in Calm   1.0 mph 84% 0.00 in
22:34 50.4 °F 46.0 °F 30.34 in ENE 0.9 mph 1.0 mph 85% 0.00 in
22:44 50.2 °F 45.9 °F 30.34 in Calm   1.0 mph 85% 0.00 in
22:49 49.8 °F 45.5 °F 30.34 in Calm     85% 0.00 in
22:54 49.5 °F 45.5 °F 30.34 in Calm     86% 0.00 in
22:59 49.3 °F 45.3 °F 30.34 in Calm     86% 0.00 in
23:04 49.1 °F 45.3 °F 30.34 in Calm     87% 0.00 in
23:30 48.4 °F 45.0 °F 30.33 in Calm   2.0 mph 88% 0.00 in
23:35 48.4 °F 45.0 °F 30.33 in SW 0.9 mph 2.0 mph 88% 0.00 in
23:40 48.0 °F 44.6 °F 30.33 in Calm   1.0 mph 88% 0.00 in
23:45 48.0 °F 44.6 °F 30.33 in Calm     88% 0.00 in
23:50 47.8 °F 44.8 °F 30.33 in Calm   2.0 mph 89% 0.00 in
WheeWeather.com
Compliments of Weather Underground - 3.25 mb